LEBB/BIO METAR and TAF weather

Enter ICAO airport designator
Station Type Date Time Source
LEBB METAR 2024/04/17 19:00 UTC NOAA

LEBB 171900Z 32003KT 9999 FEW031 BKN050 12/07 Q1022 NOSIG


Station Type Date Time Source
LEBB Decoded METAR 2024/04/17 19:00 UTC NOAA

Bilbao / Sondica, Spain (LEBB) 43-18N 002-56W 37M
Apr 17, 2024 - 03:00 PM EDT / 2024.04.17 1900 UTC
Wind: from the NW (320 degrees) at 3 MPH (3 KT):0
Visibility: greater than 7 mile(s):0
Sky conditions: mostly cloudy
Temperature: 53 F (12 C)
Dew Point: 44 F (7 C)
Relative Humidity: 71%
Pressure (altimeter): 30.18 in. Hg (1022 hPa)
ob: LEBB 171900Z 32003KT 9999 FEW031 BKN050 12/07 Q1022 NOSIG
cycle: 19

Station Type Date Time Source
LEBB TAF 2024/04/17 18:27 UTC NOAA